Yardville, New Jersey
Current Conditions -  °F | °C
As of 4:58 AM on Sunday 26 Oct 2014 (Local Time) from KWRI Reporting Station
Clear Clear  
Wind Chill: 56°   Ceiling: Unl
Heat Index: 56°   Visibility: 10mi
Dew Point: 47°   Wind: 7mph
Humidity: 70%   Direction: 290°WNW
Pressure: 29.58"   Gusts: NA
Location:  40.1542°N, 74.6404°W
Report Text: KWRI 260858Z AUTO 29006KT 10SM CLR 14/08 A2958 RMK AO2 SLP020 T01360082 50003 $
Loading
Personal Weather Stations






























Interactive Weather Map
Tropical Storm Tracking
New forecast layout! Learn more

10-Day Weather Forecast

Advertisements
Track Severe Weather on mobile